createdAt,value
2023-05-09T00:00:56.601Z,11.1
2023-05-09T00:02:13.637Z,11.1
2023-05-09T00:03:30.598Z,11.1
2023-05-09T00:04:47.814Z,11.2
2023-05-09T00:06:04.621Z,11.2
2023-05-09T00:07:21.582Z,11.1
2023-05-09T00:08:38.603Z,11.2
2023-05-09T00:09:55.602Z,11.1
2023-05-09T00:11:12.639Z,11.1
2023-05-09T00:12:29.596Z,10.9
2023-05-09T00:13:46.602Z,10.7
2023-05-09T00:15:03.599Z,10.5
2023-05-09T00:16:20.695Z,10.2
2023-05-09T00:17:37.681Z,10
2023-05-09T00:18:54.608Z,9.9
2023-05-09T00:20:11.746Z,9.9
2023-05-09T00:21:28.638Z,9.8
2023-05-09T00:22:45.633Z,9.8
2023-05-09T00:24:02.637Z,9.7
2023-05-09T00:25:19.741Z,9.7
2023-05-09T00:26:36.622Z,9.8
2023-05-09T00:27:53.654Z,9.9
2023-05-09T00:29:10.607Z,10
2023-05-09T00:30:27.622Z,10.2
2023-05-09T00:31:44.694Z,10.2
2023-05-09T00:33:01.740Z,10.3
2023-05-09T00:34:18.618Z,10.4
2023-05-09T00:35:35.764Z,10.4
2023-05-09T00:36:52.646Z,10.5
2023-05-09T00:38:09.630Z,10.5
2023-05-09T00:39:26.627Z,10.6
2023-05-09T00:40:43.625Z,10.6
2023-05-09T00:42:00.679Z,10.6
2023-05-09T00:43:17.664Z,10.6
2023-05-09T00:44:34.628Z,10.6
2023-05-09T00:45:51.640Z,10.6
2023-05-09T00:47:08.698Z,10.6
2023-05-09T00:48:25.640Z,10.6
2023-05-09T00:49:42.641Z,10.6
2023-05-09T00:50:59.762Z,10.6
2023-05-09T00:52:16.684Z,10.6
2023-05-09T00:53:33.903Z,10.6
2023-05-09T00:54:50.666Z,10.6
2023-05-09T00:56:07.691Z,10.6
2023-05-09T00:57:24.744Z,10.6
2023-05-09T00:58:42.007Z,10.6
2023-05-09T00:59:58.644Z,10.6
2023-05-09T01:01:15.747Z,10.6
2023-05-09T01:02:32.729Z,10.5
2023-05-09T01:03:49.748Z,10.5
2023-05-09T01:05:06.663Z,10.4
2023-05-09T01:06:23.761Z,10.5
2023-05-09T01:07:40.699Z,10.6
2023-05-09T01:08:57.679Z,10.5
2023-05-09T01:10:14.699Z,10.5
2023-05-09T01:11:31.687Z,10.5
2023-05-09T01:12:48.717Z,10.5
2023-05-09T01:14:05.683Z,10.5
2023-05-09T01:15:22.675Z,10.4
2023-05-09T01:16:39.706Z,10.4
2023-05-09T01:17:56.692Z,10.3
2023-05-09T01:19:13.724Z,10.4
2023-05-09T01:20:30.705Z,10.4
2023-05-09T01:21:47.802Z,10.4
2023-05-09T01:23:04.804Z,10.4
2023-05-09T01:24:21.684Z,10.3
2023-05-09T01:25:39.352Z,10.3
2023-05-09T01:26:56.685Z,10.1
2023-05-09T01:28:13.717Z,9.8
2023-05-09T01:29:30.725Z,9.6
2023-05-09T01:30:47.701Z,9.4
2023-05-09T01:32:04.701Z,9.3
2023-05-09T01:33:22.398Z,9.2
2023-05-09T01:34:39.734Z,9.2
2023-05-09T01:35:56.710Z,9.2
2023-05-09T01:37:13.843Z,9.1
2023-05-09T01:38:30.730Z,9.1
2023-05-09T01:39:47.757Z,9.1
2023-05-09T01:41:04.717Z,9.2
2023-05-09T01:42:21.716Z,9.4
2023-05-09T01:43:38.838Z,9.6
2023-05-09T01:44:55.778Z,9.7
2023-05-09T01:46:12.769Z,9.8
2023-05-09T01:47:29.738Z,9.8
2023-05-09T01:48:46.733Z,9.9
2023-05-09T01:50:03.785Z,9.9
2023-05-09T01:51:20.736Z,9.9
2023-05-09T01:52:37.896Z,9.9
2023-05-09T01:53:54.732Z,9.9
2023-05-09T01:55:11.766Z,9.9
2023-05-09T01:56:28.727Z,10.1
2023-05-09T01:57:45.742Z,10
2023-05-09T01:59:02.742Z,10
2023-05-09T02:00:19.832Z,10
2023-05-09T02:01:36.774Z,10
2023-05-09T02:02:54.207Z,10
2023-05-09T02:04:10.786Z,10.1
2023-05-09T02:05:27.742Z,10.1
2023-05-09T02:06:44.853Z,10.1
2023-05-09T02:08:01.877Z,10.1
2023-05-09T02:09:18.859Z,10
2023-05-09T02:10:35.765Z,10.1
2023-05-09T02:11:52.781Z,10.2
2023-05-09T02:13:09.879Z,10.3
2023-05-09T02:14:26.748Z,10.3
2023-05-09T02:15:43.754Z,10.3
2023-05-09T02:17:00.887Z,10.4
2023-05-09T02:18:17.771Z,10.4
2023-05-09T02:19:34.769Z,10.4
2023-05-09T02:20:51.785Z,10.4
2023-05-09T02:22:08.827Z,10.5
2023-05-09T02:23:25.896Z,10.4
2023-05-09T02:24:42.771Z,10.4
2023-05-09T02:25:59.783Z,10.3
2023-05-09T02:27:16.956Z,10.4
2023-05-09T02:28:33.811Z,10.3
2023-05-09T02:29:50.783Z,10.3
2023-05-09T02:31:07.776Z,10.4
2023-05-09T02:32:24.842Z,10.3
2023-05-09T02:33:41.785Z,10.2
2023-05-09T02:34:58.784Z,10.2
2023-05-09T02:36:15.816Z,10.2
2023-05-09T02:37:32.780Z,10.2
2023-05-09T02:38:49.986Z,10.1
2023-05-09T02:40:06.786Z,10.1
2023-05-09T02:41:23.818Z,9.9
2023-05-09T02:42:40.829Z,9.8
2023-05-09T02:43:57.815Z,9.5
2023-05-09T02:45:14.937Z,9.3
2023-05-09T02:46:33.033Z,9.1
2023-05-09T02:47:49.836Z,9
2023-05-09T02:49:06.802Z,8.8
2023-05-09T02:50:23.814Z,8.7
2023-05-09T02:51:40.880Z,8.6
2023-05-09T02:52:57.809Z,8.5
2023-05-09T02:54:14.930Z,8.5
2023-05-09T02:55:31.819Z,8.5
2023-05-09T02:56:48.830Z,8.7
2023-05-09T02:58:13.163Z,8.8
2023-05-09T02:59:22.870Z,8.9
2023-05-09T03:00:39.856Z,9
2023-05-09T03:01:56.827Z,9.1
2023-05-09T03:03:13.926Z,9.2
2023-05-09T03:04:30.881Z,9.2
2023-05-09T03:05:47.821Z,9.3
2023-05-09T03:07:04.829Z,9.3
2023-05-09T03:08:21.826Z,9.3
2023-05-09T03:09:41.056Z,9.3
2023-05-09T03:10:55.836Z,9.2
2023-05-09T03:12:12.828Z,9.3
2023-05-09T03:13:29.865Z,9.3
2023-05-09T03:14:46.851Z,9.2
2023-05-09T03:16:03.904Z,9.2
2023-05-09T03:17:20.870Z,9.2
2023-05-09T03:18:37.868Z,9.3
2023-05-09T03:19:54.859Z,9.2
2023-05-09T03:21:11.916Z,9.2
2023-05-09T03:22:28.877Z,9.2
2023-05-09T03:23:45.887Z,9.2
2023-05-09T03:25:02.979Z,9.2
2023-05-09T03:26:19.876Z,9.3
2023-05-09T03:27:36.864Z,9.3
2023-05-09T03:28:53.863Z,9.4
2023-05-09T03:30:10.878Z,9.4
2023-05-09T03:31:27.962Z,9.4
2023-05-09T03:32:44.896Z,9.4
2023-05-09T03:34:02.293Z,9.3
2023-05-09T03:35:18.864Z,9.3
2023-05-09T03:36:35.871Z,9.2
2023-05-09T03:37:52.903Z,9.1
2023-05-09T03:39:10.283Z,9
2023-05-09T03:40:26.994Z,9
2023-05-09T03:41:43.880Z,9
2023-05-09T03:43:00.912Z,9
2023-05-09T03:44:17.901Z,9
2023-05-09T03:45:34.876Z,8.9
2023-05-09T03:46:51.906Z,8.9
2023-05-09T03:48:08.905Z,8.9
2023-05-09T03:49:25.954Z,9.1
2023-05-09T03:50:43.315Z,9.1
2023-05-09T03:51:59.910Z,9.1
2023-05-09T03:53:17.318Z,9.2
2023-05-09T03:54:33.917Z,9.2
2023-05-09T03:55:51.027Z,9.2
2023-05-09T03:57:07.894Z,9.2
2023-05-09T03:58:24.895Z,9.1
2023-05-09T03:59:42.047Z,9.1
2023-05-09T04:00:58.912Z,9
2023-05-09T04:02:15.921Z,8.9
2023-05-09T04:03:33.006Z,8.8
2023-05-09T04:04:49.977Z,8.8
2023-05-09T04:06:06.949Z,8.8
2023-05-09T04:07:23.923Z,8.8
2023-05-09T04:08:40.921Z,8.8
2023-05-09T04:09:59.360Z,8.8
2023-05-09T04:11:16.103Z,8.9
2023-05-09T04:12:32.931Z,8.9
2023-05-09T04:13:49.944Z,8.9
2023-05-09T04:15:06.986Z,9
2023-05-09T04:16:23.955Z,9.1
2023-05-09T04:17:40.970Z,9.1
2023-05-09T04:18:57.928Z,9.3
2023-05-09T04:20:14.929Z,9.4
2023-05-09T04:21:31.980Z,9.5
2023-05-09T04:22:48.958Z,9.6
2023-05-09T04:24:05.955Z,9.7
2023-05-09T04:25:23.025Z,9.8
2023-05-09T04:26:40.064Z,9.8
2023-05-09T04:27:56.988Z,9.8
2023-05-09T04:29:13.937Z,10
2023-05-09T04:30:31.028Z,10
2023-05-09T04:31:48.047Z,10.2
2023-05-09T04:33:04.996Z,10.2
2023-05-09T04:34:21.984Z,10.3
2023-05-09T04:35:38.959Z,10.3
2023-05-09T04:36:55.978Z,10.3
2023-05-09T04:38:13.006Z,10.4
2023-05-09T04:39:29.958Z,10.5
2023-05-09T04:40:46.965Z,10.6
2023-05-09T04:42:04.075Z,10.6
2023-05-09T04:43:21.042Z,10.7
2023-05-09T04:44:38.008Z,10.8
2023-05-09T04:45:55.059Z,10.8
2023-05-09T04:47:12.002Z,10.9
2023-05-09T04:48:29.033Z,10.9
2023-05-09T04:49:45.987Z,10.9
2023-05-09T04:51:02.984Z,10.9
2023-05-09T04:52:19.977Z,10.9
2023-05-09T04:53:37.037Z,11
2023-05-09T04:54:53.972Z,11
2023-05-09T04:56:10.975Z,11
2023-05-09T04:57:28.091Z,11
2023-05-09T04:58:45.001Z,10.9
2023-05-09T05:00:02.117Z,11
2023-05-09T05:01:19.035Z,11.1
2023-05-09T05:02:36.025Z,11.2
2023-05-09T05:03:52.980Z,11.1
2023-05-09T05:05:11.872Z,11.1
2023-05-09T05:06:27.005Z,11.1
2023-05-09T05:07:44.015Z,11.2
2023-05-09T05:09:01.051Z,11.2
2023-05-09T05:10:18.065Z,11.2
2023-05-09T05:11:35.040Z,11.2
2023-05-09T05:12:52.133Z,11.2
2023-05-09T05:14:09.002Z,11.3
2023-05-09T05:15:26.036Z,11.3
2023-05-09T05:16:43.022Z,11.4
2023-05-09T05:18:00.016Z,11.5
2023-05-09T05:19:17.005Z,11.4
2023-05-09T05:20:34.082Z,11.3
2023-05-09T05:21:51.033Z,11.4
2023-05-09T05:23:08.066Z,11.4
2023-05-09T05:24:25.049Z,11.4
2023-05-09T05:25:42.055Z,11.3
2023-05-09T05:26:59.021Z,11.3
2023-05-09T05:28:16.164Z,11.4
2023-05-09T05:29:33.034Z,11.3
2023-05-09T05:30:50.048Z,11.3
2023-05-09T05:32:07.043Z,11.4
2023-05-09T05:33:24.019Z,11.3
2023-05-09T05:34:41.031Z,11.4
2023-05-09T05:35:58.077Z,11.6
2023-05-09T05:37:15.057Z,11.9
2023-05-09T05:38:32.036Z,12.1
2023-05-09T05:39:49.091Z,12.2
2023-05-09T05:41:06.115Z,12.4
2023-05-09T05:42:23.044Z,12.5
2023-05-09T05:43:40.166Z,12.6
2023-05-09T05:44:57.037Z,12.6
2023-05-09T05:46:14.067Z,12.6
2023-05-09T05:47:31.096Z,12.7
2023-05-09T05:48:48.067Z,12.8
2023-05-09T05:50:05.053Z,12.8
2023-05-09T05:51:22.122Z,12.7
2023-05-09T05:52:39.055Z,12.6
2023-05-09T05:53:56.052Z,12.6
2023-05-09T05:55:13.268Z,12.7
2023-05-09T05:56:30.107Z,12.9
2023-05-09T05:57:47.090Z,13.1
2023-05-09T05:59:04.119Z,13.2
2023-05-09T06:00:21.081Z,13.1
2023-05-09T06:01:38.202Z,13.2
2023-05-09T06:02:55.243Z,13.3
2023-05-09T06:04:12.591Z,13.5
2023-05-09T06:05:29.065Z,13.5
2023-05-09T06:06:46.153Z,13.5
2023-05-09T06:08:03.089Z,13.5
2023-05-09T06:09:20.092Z,13.5
2023-05-09T06:10:37.090Z,13.5
2023-05-09T06:11:54.111Z,13.6
2023-05-09T06:13:11.221Z,13.7
2023-05-09T06:14:28.201Z,13.8
2023-05-09T06:15:45.109Z,13.7
2023-05-09T06:17:02.124Z,13.6
2023-05-09T06:18:19.239Z,13.8
2023-05-09T06:19:36.113Z,14
2023-05-09T06:20:53.139Z,14.6
2023-05-09T06:22:10.123Z,15.3
2023-05-09T06:23:27.095Z,15.9
2023-05-09T06:24:44.139Z,16.5
2023-05-09T06:26:01.125Z,17.2
2023-05-09T06:27:18.104Z,17.4
2023-05-09T06:28:35.104Z,17.6
2023-05-09T06:29:52.251Z,17.4
2023-05-09T06:31:09.119Z,17.5
2023-05-09T06:32:26.173Z,17.5
2023-05-09T06:33:43.139Z,17.4
2023-05-09T06:35:00.169Z,17.3
2023-05-09T06:36:17.124Z,17.1
2023-05-09T06:37:34.129Z,16.9
2023-05-09T06:38:51.194Z,16.8
2023-05-09T06:40:08.207Z,17
2023-05-09T06:41:25.163Z,17.2
2023-05-09T06:42:42.138Z,17.7
2023-05-09T06:43:59.137Z,17.9
2023-05-09T06:45:16.571Z,17.9
2023-05-09T06:46:33.160Z,17.8
2023-05-09T06:47:50.235Z,17.9
2023-05-09T06:49:07.188Z,18.1
2023-05-09T06:50:24.180Z,18.4
2023-05-09T06:51:41.156Z,18.5
2023-05-09T06:52:58.171Z,18.1
2023-05-09T06:54:15.134Z,17.9
2023-05-09T06:55:32.143Z,18
2023-05-09T06:56:49.183Z,18
2023-05-09T06:58:06.187Z,18
2023-05-09T06:59:23.193Z,18
2023-05-09T07:00:40.273Z,18
2023-05-09T07:01:58.068Z,18.1
2023-05-09T07:03:15.220Z,18.3
2023-05-09T07:04:32.149Z,18.5
2023-05-09T07:05:49.165Z,18.8
2023-05-09T07:07:06.203Z,18.6
2023-05-09T07:08:23.222Z,18.4
2023-05-09T07:09:40.213Z,18.3
2023-05-09T07:10:57.191Z,18.2
2023-05-09T07:12:14.170Z,18.3
2023-05-09T07:13:31.370Z,18.5
2023-05-09T07:14:48.198Z,18.4
2023-05-09T07:16:05.331Z,18.1
2023-05-09T07:17:23.830Z,18
2023-05-09T07:18:39.223Z,18.2
2023-05-09T07:19:56.227Z,18.8
2023-05-09T07:21:13.200Z,18.8
2023-05-09T07:22:31.843Z,18.7
2023-05-09T07:23:47.192Z,18.5
2023-05-09T07:25:04.247Z,18.2
2023-05-09T07:26:21.284Z,18.4
2023-05-09T07:27:38.225Z,18.6
2023-05-09T07:28:55.200Z,18.8
2023-05-09T07:30:12.325Z,18.8
2023-05-09T07:31:29.353Z,18.6
2023-05-09T07:32:46.284Z,18.6
2023-05-09T07:34:03.235Z,18.5
2023-05-09T07:35:20.283Z,18.9
2023-05-09T07:37:54.215Z,19.2
2023-05-09T07:39:11.223Z,19
2023-05-09T07:40:28.264Z,18.8
2023-05-09T07:41:45.964Z,18.6
2023-05-09T07:43:02.265Z,18.7
2023-05-09T07:44:19.217Z,18.9
2023-05-09T07:45:36.328Z,19.3
2023-05-09T07:46:53.343Z,19.7
2023-05-09T07:48:10.267Z,19.8
2023-05-09T07:49:27.233Z,19.9
2023-05-09T07:50:44.262Z,19.9
2023-05-09T07:52:01.323Z,20
2023-05-09T07:53:18.241Z,20.1
2023-05-09T07:54:35.229Z,20.3
2023-05-09T07:55:52.308Z,20.3
2023-05-09T07:57:09.242Z,20.3
2023-05-09T07:58:26.245Z,20.3
2023-05-09T07:59:43.228Z,20.2
2023-05-09T08:01:00.296Z,19.8
2023-05-09T08:02:17.406Z,19.8
2023-05-09T08:03:34.300Z,19.9
2023-05-09T08:04:51.267Z,19.9
2023-05-09T08:06:08.308Z,20.2
2023-05-09T08:07:25.255Z,20.5
2023-05-09T08:08:42.653Z,20.5
2023-05-09T08:09:59.285Z,20.4
2023-05-09T08:11:16.278Z,20.3
2023-05-09T08:12:33.330Z,20.2
2023-05-09T08:13:50.288Z,20.1
2023-05-09T08:15:07.564Z,20.1
2023-05-09T08:16:24.316Z,20.1
2023-05-09T08:17:41.475Z,20.1
2023-05-09T08:18:58.398Z,20.1
2023-05-09T08:20:15.288Z,20.2
2023-05-09T08:21:32.272Z,20.3
2023-05-09T08:22:49.270Z,20.5
2023-05-09T08:24:06.415Z,20.5
2023-05-09T08:25:23.317Z,20.6
2023-05-09T08:26:40.288Z,20.6
2023-05-09T08:27:57.282Z,20.4
2023-05-09T08:29:14.376Z,20.3
2023-05-09T08:30:31.297Z,20.3
2023-05-09T08:31:48.359Z,20.1
2023-05-09T08:33:05.475Z,20.2
2023-05-09T08:34:22.330Z,20.5
2023-05-09T08:35:39.322Z,20.4
2023-05-09T08:36:56.349Z,20.4
2023-05-09T08:38:13.297Z,20.5
2023-05-09T08:39:30.337Z,20.6
2023-05-09T08:40:47.322Z,20.6
2023-05-09T08:42:04.351Z,20.6
2023-05-09T08:43:21.332Z,20.8
2023-05-09T08:44:38.370Z,20.9
2023-05-09T08:45:55.325Z,20.7
2023-05-09T08:47:12.430Z,20.7
2023-05-09T08:48:29.363Z,20.5
2023-05-09T08:49:46.353Z,20.5
2023-05-09T08:51:03.725Z,20.5
2023-05-09T08:52:20.326Z,20.8
2023-05-09T08:53:37.340Z,20.9
2023-05-09T08:54:54.335Z,21
2023-05-09T08:56:11.349Z,21.3
2023-05-09T08:57:28.352Z,21.4
2023-05-09T08:58:45.356Z,21.5
2023-05-09T09:00:02.381Z,21.6
2023-05-09T09:01:19.382Z,21.7
2023-05-09T09:02:36.366Z,21.5
2023-05-09T09:03:53.494Z,21.4
2023-05-09T09:05:19.776Z,21.2
2023-05-09T09:06:27.387Z,20.9
2023-05-09T09:07:44.483Z,20.6
2023-05-09T09:09:01.365Z,20.3
2023-05-09T09:10:18.365Z,20.2
2023-05-09T09:11:35.379Z,20.2
2023-05-09T09:12:52.413Z,20
2023-05-09T09:14:09.368Z,19.9
2023-05-09T09:15:26.403Z,19.7
2023-05-09T09:16:43.544Z,19.7
2023-05-09T09:18:00.415Z,20.1
2023-05-09T09:19:17.515Z,20.5
2023-05-09T09:20:34.360Z,20.5
2023-05-09T09:21:51.398Z,20.5
2023-05-09T09:23:09.749Z,20.4
2023-05-09T09:24:26.380Z,20.4
2023-05-09T09:25:43.375Z,20.4
2023-05-09T09:27:00.399Z,20.6
2023-05-09T09:28:17.394Z,20.8
2023-05-09T09:29:34.431Z,20.8
2023-05-09T09:30:51.419Z,20.6
2023-05-09T09:32:08.436Z,20.7
2023-05-09T09:33:25.391Z,20.5
2023-05-09T09:34:42.604Z,20.5
2023-05-09T09:35:59.385Z,20.4
2023-05-09T09:37:16.432Z,20.4
2023-05-09T09:38:33.423Z,20.5
2023-05-09T09:39:50.421Z,20.6
2023-05-09T09:41:07.409Z,20.7
2023-05-09T09:42:24.418Z,21
2023-05-09T09:43:41.398Z,21
2023-05-09T09:44:58.416Z,21.2
2023-05-09T09:46:15.435Z,21.5
2023-05-09T09:47:32.474Z,21.8
2023-05-09T09:48:49.411Z,22.3
2023-05-09T09:50:06.655Z,22.3
2023-05-09T09:51:23.451Z,21.8
2023-05-09T09:52:40.484Z,21.5
2023-05-09T09:53:57.422Z,21.2
2023-05-09T09:55:14.447Z,20.9
2023-05-09T09:56:31.440Z,21
2023-05-09T09:57:48.447Z,21
2023-05-09T09:59:05.453Z,20.9
2023-05-09T10:00:22.474Z,21
2023-05-09T10:01:39.474Z,20.9
2023-05-09T10:02:56.486Z,21.1
2023-05-09T10:04:13.484Z,21
2023-05-09T10:05:30.590Z,20.7
2023-05-09T10:06:47.459Z,20.8
2023-05-09T10:08:04.569Z,20.8
2023-05-09T10:09:21.462Z,20.7
2023-05-09T10:10:38.746Z,20.6
2023-05-09T10:11:55.485Z,20.7
2023-05-09T10:13:12.509Z,21
2023-05-09T10:14:29.457Z,21.1
2023-05-09T10:15:53.419Z,21.2
2023-05-09T10:17:03.528Z,21.5
2023-05-09T10:18:20.666Z,21.6
2023-05-09T10:19:37.458Z,21.5
2023-05-09T10:20:54.602Z,21.4
2023-05-09T10:22:11.478Z,21.1
2023-05-09T10:23:28.487Z,21
2023-05-09T10:24:45.493Z,21.1
2023-05-09T10:26:02.487Z,21.3
2023-05-09T10:27:19.500Z,21.4
2023-05-09T10:28:36.587Z,21.5
2023-05-09T10:29:53.477Z,21.6
2023-05-09T10:31:10.526Z,21.9
2023-05-09T10:32:27.541Z,21.9
2023-05-09T10:33:44.494Z,22
2023-05-09T10:35:01.538Z,22
2023-05-09T10:36:18.633Z,22
2023-05-09T10:37:35.553Z,22.3
2023-05-09T10:38:52.504Z,22.5
2023-05-09T10:40:09.509Z,22.7
2023-05-09T10:41:26.479Z,22.8
2023-05-09T10:42:43.531Z,23.1
2023-05-09T10:44:00.514Z,23.3
2023-05-09T10:45:17.676Z,23.2
2023-05-09T10:46:34.660Z,23
2023-05-09T10:47:51.563Z,22.8
2023-05-09T10:49:08.524Z,22.5
2023-05-09T10:50:25.515Z,22.4
2023-05-09T10:51:42.631Z,22.3
2023-05-09T10:52:59.529Z,22.1
2023-05-09T10:54:16.542Z,21.8
2023-05-09T10:55:33.545Z,21.6
2023-05-09T10:56:50.573Z,21.6
2023-05-09T10:58:07.583Z,21.3
2023-05-09T10:59:24.512Z,21.4
2023-05-09T11:00:41.545Z,21.4
2023-05-09T11:01:58.559Z,21.4
2023-05-09T11:03:15.659Z,21.2
2023-05-09T11:04:32.530Z,20.9
2023-05-09T11:05:49.539Z,20.7
2023-05-09T11:07:06.688Z,20.9
2023-05-09T11:08:23.579Z,21.1
2023-05-09T11:09:40.535Z,21.4
2023-05-09T11:10:57.545Z,21.8
2023-05-09T11:12:14.573Z,22.1
2023-05-09T11:13:32.630Z,22.3
2023-05-09T11:14:49.574Z,22.6
2023-05-09T11:16:06.605Z,22.5
2023-05-09T11:17:23.656Z,22.6
2023-05-09T11:18:40.613Z,22.6
2023-05-09T11:19:57.550Z,22.5
2023-05-09T11:21:14.578Z,22.2
2023-05-09T11:22:31.679Z,22
2023-05-09T11:23:48.579Z,21.8
2023-05-09T11:25:05.573Z,21.8
2023-05-09T11:26:22.563Z,22.1
2023-05-09T11:27:39.567Z,22.2
2023-05-09T11:28:56.584Z,22.3
2023-05-09T11:30:13.565Z,22.3
2023-05-09T11:31:30.579Z,22.2
2023-05-09T11:32:47.638Z,22.4
2023-05-09T11:34:04.603Z,22.5
2023-05-09T11:35:21.580Z,22.6
2023-05-09T11:36:38.579Z,22.4
2023-05-09T11:37:55.697Z,22.2
2023-05-09T11:39:12.662Z,22.3
2023-05-09T11:40:29.611Z,22.4
2023-05-09T11:41:46.600Z,22.6
2023-05-09T11:43:03.629Z,22.6
2023-05-09T11:44:20.639Z,22.5
2023-05-09T11:45:37.642Z,22.6
2023-05-09T11:46:54.594Z,22.6
2023-05-09T11:48:11.659Z,22.7
2023-05-09T11:49:28.615Z,22.7
2023-05-09T11:50:45.634Z,22.5
2023-05-09T11:52:02.615Z,22.3
2023-05-09T11:53:19.747Z,22.2
2023-05-09T11:54:36.636Z,22.2
2023-05-09T11:55:53.663Z,22
2023-05-09T11:57:10.616Z,21.9
2023-05-09T11:58:27.648Z,21.8
2023-05-09T11:59:44.653Z,21.9
2023-05-09T12:01:01.618Z,22.1
2023-05-09T12:02:18.674Z,22.2
2023-05-09T12:03:35.711Z,22.3
2023-05-09T12:04:52.631Z,22.5
2023-05-09T12:06:09.653Z,22.7
2023-05-09T12:07:26.647Z,23.2
2023-05-09T12:08:43.804Z,23.4
2023-05-09T12:10:00.633Z,23.4
2023-05-09T12:11:17.654Z,23.4
2023-05-09T12:12:34.701Z,23.5
2023-05-09T12:13:51.669Z,23.1
2023-05-09T12:15:08.661Z,22.9
2023-05-09T12:16:25.676Z,22.9
2023-05-09T12:17:42.660Z,23.2
2023-05-09T12:18:59.662Z,23.3
2023-05-09T12:20:16.654Z,23.3
2023-05-09T12:21:33.664Z,23.1
2023-05-09T12:22:50.647Z,23.1
2023-05-09T12:24:07.823Z,23.1
2023-05-09T12:25:24.649Z,23.4
2023-05-09T12:26:41.652Z,23.4
2023-05-09T12:27:58.653Z,23.7
2023-05-09T12:29:15.699Z,23.8
2023-05-09T12:30:32.691Z,23.9
2023-05-09T12:31:49.701Z,23.9
2023-05-09T12:33:06.699Z,23.6
2023-05-09T12:34:23.727Z,23.2
2023-05-09T12:35:40.710Z,22.9
2023-05-09T12:36:57.669Z,22.9
2023-05-09T12:38:14.698Z,23.1
2023-05-09T12:39:31.874Z,23.4
2023-05-09T12:40:48.704Z,23.8
2023-05-09T12:42:05.709Z,24.2
2023-05-09T12:43:22.696Z,24.5
2023-05-09T12:44:39.708Z,24.2
2023-05-09T12:45:56.712Z,24
2023-05-09T12:47:13.733Z,24
2023-05-09T12:48:30.712Z,23.8
2023-05-09T12:49:47.726Z,23.8
2023-05-09T12:51:04.707Z,24
2023-05-09T12:52:21.689Z,24.1
2023-05-09T12:53:38.714Z,24.2
2023-05-09T12:54:55.856Z,24
2023-05-09T12:56:12.701Z,23.8
2023-05-09T12:57:31.504Z,23.7
2023-05-09T12:58:46.714Z,23.6
2023-05-09T13:00:03.793Z,23.5
2023-05-09T13:01:20.757Z,23.4
2023-05-09T13:02:37.812Z,22.9
2023-05-09T13:03:54.774Z,22.7
2023-05-09T13:05:11.720Z,22.8
2023-05-09T13:06:28.768Z,22.9
2023-05-09T13:07:45.790Z,22.8
2023-05-09T13:09:02.849Z,22.9
2023-05-09T13:10:19.934Z,23.1
2023-05-09T13:11:36.779Z,23.1
2023-05-09T13:12:53.842Z,23.1
2023-05-09T13:14:10.794Z,23.1
2023-05-09T13:15:27.737Z,23
2023-05-09T13:16:44.770Z,23
2023-05-09T13:18:01.841Z,22.7
2023-05-09T13:19:19.025Z,22.4
2023-05-09T13:20:35.735Z,22.2
2023-05-09T13:21:52.754Z,22.5
2023-05-09T13:23:09.745Z,22.9
2023-05-09T13:24:26.787Z,23.4
2023-05-09T13:25:43.870Z,23.7
2023-05-09T13:27:00.801Z,23.7
2023-05-09T13:28:17.761Z,23.6
2023-05-09T13:29:34.831Z,23.6
2023-05-09T13:30:51.799Z,23.6
2023-05-09T13:32:08.839Z,23.8
2023-05-09T13:33:26.705Z,23.9
2023-05-09T13:34:42.786Z,23.9
2023-05-09T13:35:59.778Z,23.8
2023-05-09T13:37:16.769Z,24
2023-05-09T13:38:33.862Z,24.2
2023-05-09T13:39:50.805Z,24.3
2023-05-09T13:41:07.927Z,24.7
2023-05-09T13:42:24.922Z,24.9
2023-05-09T13:43:41.781Z,24.9
2023-05-09T13:44:58.813Z,25.1
2023-05-09T13:46:15.933Z,24.7
2023-05-09T13:47:32.823Z,24.2
2023-05-09T13:48:49.801Z,23.6
2023-05-09T13:50:06.840Z,23.2
2023-05-09T13:51:23.811Z,22.8
2023-05-09T13:52:40.821Z,22.8
2023-05-09T13:53:57.813Z,22.9
2023-05-09T13:55:14.837Z,23
2023-05-09T13:56:31.945Z,23.3
2023-05-09T13:57:48.871Z,23.7
2023-05-09T13:59:05.842Z,23.9
2023-05-09T14:00:22.827Z,24.1
2023-05-09T14:01:39.882Z,24.1
2023-05-09T14:02:56.879Z,24.3
2023-05-09T14:04:13.862Z,24.4
2023-05-09T14:05:30.874Z,24.3
2023-05-09T14:06:47.821Z,24.1
2023-05-09T14:08:04.863Z,24
2023-05-09T14:09:21.827Z,23.5
2023-05-09T14:10:38.822Z,23.3
2023-05-09T14:11:55.972Z,23.2
2023-05-09T14:13:12.895Z,23.2
2023-05-09T14:14:29.845Z,23.5
2023-05-09T14:15:46.884Z,23.7
2023-05-09T14:17:03.835Z,23.9
2023-05-09T14:18:21.200Z,24
2023-05-09T14:19:37.854Z,23.9
2023-05-09T14:20:54.852Z,24.1
2023-05-09T14:22:11.868Z,24.2
2023-05-09T14:23:28.909Z,24
2023-05-09T14:24:45.858Z,23.8
2023-05-09T14:26:03.072Z,23.7
2023-05-09T14:27:20.055Z,23.6
2023-05-09T14:28:36.884Z,23.3
2023-05-09T14:29:53.905Z,23.3
2023-05-09T14:31:11.010Z,23.1
2023-05-09T14:32:27.916Z,23
2023-05-09T14:33:44.880Z,22.7
2023-05-09T14:35:02.004Z,22.6
2023-05-09T14:36:18.947Z,22.6
2023-05-09T14:37:35.906Z,22.7
2023-05-09T14:38:52.887Z,22.8
2023-05-09T14:40:09.907Z,22.9
2023-05-09T14:41:26.989Z,22.9
2023-05-09T14:42:43.999Z,22.7
2023-05-09T14:44:00.890Z,22.8
2023-05-09T14:45:17.889Z,22.6
2023-05-09T14:46:34.916Z,22.5
2023-05-09T14:47:52.053Z,22.5
2023-05-09T14:49:09.963Z,22.6
2023-05-09T14:50:26.882Z,22.3
2023-05-09T14:51:43.914Z,22.2
2023-05-09T14:53:00.931Z,22.1
2023-05-09T14:54:17.992Z,22.1
2023-05-09T14:55:34.901Z,22.1
2023-05-09T14:56:52.178Z,22.2
2023-05-09T14:58:09.029Z,22.1
2023-05-09T14:59:25.925Z,22
2023-05-09T15:00:42.942Z,22
2023-05-09T15:02:00.039Z,22
2023-05-09T15:03:16.947Z,21.9
2023-05-09T15:04:34.059Z,21.9
2023-05-09T15:05:50.912Z,21.9
2023-05-09T15:07:07.970Z,21.8
2023-05-09T15:08:24.935Z,21.8
2023-05-09T15:09:41.941Z,21.8
2023-05-09T15:10:58.923Z,21.9
2023-05-09T15:12:15.951Z,21.9
2023-05-09T15:13:33.119Z,21.9
2023-05-09T15:14:49.934Z,21.9
2023-05-09T15:16:06.981Z,21.9
2023-05-09T15:17:23.931Z,21.9
2023-05-09T15:18:40.988Z,21.9
2023-05-09T15:19:57.944Z,21.8
2023-05-09T15:21:14.966Z,21.7
2023-05-09T15:22:31.957Z,21.5
2023-05-09T15:23:49.602Z,21.4
2023-05-09T15:25:06.321Z,21.4
2023-05-09T15:26:22.942Z,21.5
2023-05-09T15:27:40.062Z,21.5
2023-05-09T15:28:57.167Z,21.5
2023-05-09T15:30:14.328Z,21.3
2023-05-09T15:31:31.092Z,21.3
2023-05-09T15:32:48.054Z,21.4
2023-05-09T15:34:05.043Z,21.4
2023-05-09T15:35:21.990Z,21.4
2023-05-09T15:36:39.018Z,21.2
2023-05-09T15:37:55.975Z,21.2
2023-05-09T15:39:12.995Z,21.3
2023-05-09T15:40:30.051Z,21.3
2023-05-09T15:41:46.970Z,21.2
2023-05-09T15:43:05.928Z,21.3
2023-05-09T15:44:21.209Z,21.5
2023-05-09T15:45:38.050Z,21.7
2023-05-09T15:46:55.237Z,21.8
2023-05-09T15:48:12.234Z,21.9
2023-05-09T15:49:28.988Z,22
2023-05-09T15:50:46.044Z,22
2023-05-09T15:52:03.006Z,21.9
2023-05-09T15:53:20.030Z,21.9
2023-05-09T15:54:37.062Z,21.8
2023-05-09T15:55:54.053Z,21.7
2023-05-09T15:57:11.005Z,21.6
2023-05-09T15:58:28.010Z,21.6
2023-05-09T15:59:45.128Z,21.6
2023-05-09T16:01:02.047Z,21.6
2023-05-09T16:02:19.047Z,21.6
2023-05-09T16:03:36.114Z,21.7
2023-05-09T16:04:53.012Z,21.8
2023-05-09T16:06:10.046Z,21.8
2023-05-09T16:07:27.051Z,21.7
2023-05-09T16:08:44.050Z,21.5
2023-05-09T16:10:01.009Z,21.4
2023-05-09T16:11:18.033Z,21.4
2023-05-09T16:12:35.056Z,21.3
2023-05-09T16:13:52.043Z,21.4
2023-05-09T16:15:09.142Z,21.5
2023-05-09T16:16:26.040Z,21.5
2023-05-09T16:17:43.060Z,21.3
2023-05-09T16:19:00.035Z,21.3
2023-05-09T16:20:17.148Z,21.3
2023-05-09T16:21:34.098Z,21.3
2023-05-09T16:22:51.068Z,21.4
2023-05-09T16:24:08.260Z,21.4
2023-05-09T16:25:26.077Z,21.2
2023-05-09T16:26:43.060Z,21.2
2023-05-09T16:28:00.793Z,21.2
2023-05-09T16:29:18.043Z,21.3
2023-05-09T16:30:35.226Z,21.3
2023-05-09T16:31:52.120Z,21.3
2023-05-09T16:33:09.144Z,21.2
2023-05-09T16:34:26.122Z,21.3
2023-05-09T16:35:43.059Z,21.3
2023-05-09T16:37:00.076Z,21.3
2023-05-09T16:38:17.059Z,21.3
2023-05-09T16:39:34.086Z,21.4
2023-05-09T16:40:51.081Z,21.3
2023-05-09T16:42:08.106Z,21.3
2023-05-09T16:43:25.115Z,21.3
2023-05-09T16:44:42.102Z,21.4
2023-05-09T16:45:59.205Z,21.3
2023-05-09T16:47:16.082Z,21.3
2023-05-09T16:48:33.109Z,21.3
2023-05-09T16:49:50.112Z,21.2
2023-05-09T16:51:07.076Z,21.3
2023-05-09T16:52:24.090Z,21.2
2023-05-09T16:53:41.092Z,21.3
2023-05-09T16:54:58.173Z,21.2
2023-05-09T16:56:15.152Z,21.1
2023-05-09T16:57:32.094Z,21.1
2023-05-09T16:58:49.104Z,21.1
2023-05-09T17:00:06.153Z,21
2023-05-09T17:01:23.270Z,21
2023-05-09T17:02:40.124Z,21.1
2023-05-09T17:03:57.159Z,21.1
2023-05-09T17:05:14.176Z,21.2
2023-05-09T17:06:31.183Z,21.2
2023-05-09T17:07:48.194Z,21.1
2023-05-09T17:09:05.144Z,21.1
2023-05-09T17:10:22.140Z,21
2023-05-09T17:11:39.144Z,20.9
2023-05-09T17:12:56.179Z,20.8
2023-05-09T17:14:13.130Z,20.8
2023-05-09T17:15:30.137Z,20.7
2023-05-09T17:16:47.330Z,20.8